Terminal Aerodrome Forecast
Issued by NWS Portland, OR

Home | Current Version | Previous Version | Text Only | Print | Product List | Glossary On
Versions: 1 2 3 4 5 6 7 8 9 10 11 12 13 14 15 16 17 18 19 20 21 22 23 24 25 26 27 28 29 30 31 32 33
000
FTUS46 KPQR 271723
TAFTTD
TAF
KTTD 271723Z 2718/2818 VRB03KT 6SM BR SCT008 BKN010 OVC025
     FM280000 VRB03KT P6SM SCT015 BKN030 OVC040
     FM280600 00000KT 5SM BR SCT008 BKN015 OVC025
     FM281600 VRB03KT 6SM BR SCT020 OVC045=

USA.gov is the U.S. government's official web portal to all federal, state and local government web resources and services.